Time;durP1;ratioP1;P1;durP2;ratioP2;P2;SDS_P1;SDS_P2;PMS_P1;PMS_P2;Temp;Humidity;BMP_temperature;BMP_pressure;BME280_temperature;BME280_humidity;BME280_pressure;Samples;Min_cycle;Max_cycle;Signal;HPM_P1;HPM_P2
2022/03/10 00:01:24;;;;;;;0.97;0.60;;;8.20;90.40;;;;;;6223406;23;20214;-93
2022/03/10 00:06:33;;;;;;;0.80;0.70;;;8.00;90.50;;;;;;6231834;23;20214;-94
2022/03/10 00:09:08;;;;;;;1.80;0.67;;;8.10;91.00;;;;;;6210632;23;20211;-93
2022/03/10 00:11:41;;;;;;;1.73;0.80;;;8.10;91.00;;;;;;6235426;23;20180;-94
2022/03/10 00:14:13;;;;;;;0.60;0.50;;;8.10;90.40;;;;;;6219924;23;20266;-93
2022/03/10 00:16:45;;;;;;;2.20;0.80;;;8.10;90.70;;;;;;6234357;23;20176;-92
2022/03/10 00:19:19;;;;;;;1.13;0.47;;;8.20;89.10;;;;;;6209325;23;20181;-93
2022/03/10 00:21:51;;;;;;;1.20;0.60;;;8.20;91.20;;;;;;6234417;23;20176;-92
2022/03/10 00:24:23;;;;;;;1.00;0.60;;;8.20;87.60;;;;;;6236573;23;20187;-92
2022/03/10 00:26:54;;;;;;;0.50;0.50;;;8.20;89.30;;;;;;6235345;23;20172;-95
2022/03/10 00:29:25;;;;;;;1.03;0.63;;;8.10;87.00;;;;;;6238848;23;20248;-91
2022/03/10 00:31:57;;;;;;;0.60;0.60;;;8.00;89.60;;;;;;6241451;23;20164;-91
2022/03/10 00:34:28;;;;;;;0.90;0.50;;;7.90;89.70;;;;;;6240782;23;20187;-93
2022/03/10 00:36:59;;;;;;;1.10;0.70;;;7.70;87.00;;;;;;6242097;23;20164;-93
2022/03/10 00:39:32;;;;;;;1.47;0.60;;;7.50;86.00;;;;;;6243893;23;20164;-91
2022/03/10 00:42:07;;;;;;;0.77;0.60;;;7.40;89.20;;;;;;6235564;23;20240;-92
2022/03/10 00:44:39;;;;;;;2.37;0.80;;;7.30;88.30;;;;;;6214231;23;20526;-93
2022/03/10 00:47:10;;;;;;;1.17;0.53;;;7.10;90.00;;;;;;6233629;23;20176;-92
2022/03/10 00:49:42;;;;;;;2.30;0.70;;;7.10;88.90;;;;;;6233738;23;20199;-94
2022/03/10 00:52:14;;;;;;;0.63;0.60;;;6.90;88.30;;;;;;6238848;23;20183;-93
2022/03/10 00:54:47;;;;;;;2.07;0.70;;;6.80;89.60;;;;;;6237251;23;20192;-92
2022/03/10 00:57:19;;;;;;;1.53;0.67;;;6.70;90.10;;;;;;6237039;23;20164;-93
2022/03/10 00:59:50;;;;;;;4.40;0.70;;;6.70;90.20;;;;;;6240588;22;20214;-93
2022/03/10 01:02:21;;;;;;;1.90;0.73;;;6.60;91.60;;;;;;6244347;23;20200;-91
2022/03/10 01:04:53;;;;;;;0.50;0.50;;;6.50;90.40;;;;;;6242752;23;20176;-92
2022/03/10 01:07:24;;;;;;;0.60;0.40;;;6.40;90.30;;;;;;6241244;23;20156;-93
2022/03/10 01:09:56;;;;;;;1.57;0.60;;;6.40;90.40;;;;;;6219958;23;20204;-93
2022/03/10 01:12:27;;;;;;;0.93;0.60;;;6.40;90.10;;;;;;6233960;23;20177;-93
2022/03/10 01:15:02;;;;;;;1.00;0.70;;;6.30;90.90;;;;;;6236309;23;20172;-94
2022/03/10 01:17:35;;;;;;;1.30;0.70;;;6.20;90.80;;;;;;6236819;23;20164;-94
2022/03/10 01:20:08;;;;;;;4.33;0.63;;;6.10;91.80;;;;;;6218919;23;20208;-93
2022/03/10 01:22:41;;;;;;;0.67;0.60;;;6.00;92.30;;;;;;6215542;23;20236;-93
2022/03/10 01:25:15;;;;;;;2.03;0.70;;;6.00;90.40;;;;;;6242146;23;20172;-94
2022/03/10 01:27:48;;;;;;;3.43;1.10;;;6.00;91.60;;;;;;6214246;23;20196;-93
2022/03/10 01:30:19;;;;;;;2.90;1.30;;;5.90;93.10;;;;;;6230974;23;20271;-92
2022/03/10 01:32:51;;;;;;;1.43;0.70;;;5.80;90.90;;;;;;6243405;23;20163;-94
2022/03/10 01:35:23;;;;;;;1.10;0.60;;;5.80;91.00;;;;;;6242734;23;20225;-93
2022/03/10 01:37:54;;;;;;;0.97;0.60;;;5.80;90.10;;;;;;6239552;23;20173;-93
2022/03/10 01:40:27;;;;;;;1.63;0.80;;;5.70;89.90;;;;;;6239176;23;20169;-93
2022/03/10 01:42:59;;;;;;;3.90;0.90;;;5.60;91.00;;;;;;6238184;23;20172;-93
2022/03/10 01:45:31;;;;;;;2.90;0.80;;;5.60;90.00;;;;;;6238679;23;20188;-93
2022/03/10 01:48:03;;;;;;;1.87;0.90;;;5.50;92.10;;;;;;6237243;23;20213;-93
2022/03/10 01:50:35;;;;;;;0.93;0.53;;;5.50;90.50;;;;;;6211920;23;20192;-93
2022/03/10 01:53:06;;;;;;;1.90;0.63;;;5.40;92.80;;;;;;6239499;23;20169;-93
2022/03/10 01:55:38;;;;;;;1.70;0.57;;;5.30;95.00;;;;;;6237512;23;20168;-92
2022/03/10 01:58:10;;;;;;;3.23;1.10;;;5.10;98.00;;;;;;6211370;23;20175;-93
2022/03/10 02:00:44;;;;;;;1.77;0.67;;;5.00;99.90;;;;;;6237787;23;20203;-91
2022/03/10 02:03:15;;;;;;;0.97;0.70;;;4.90;99.90;;;;;;6239147;23;20172;-94
2022/03/10 02:05:48;;;;;;;0.70;0.50;;;4.80;98.00;;;;;;6238123;23;20199;-93
2022/03/10 02:11:12;;;;;;;1.90;0.60;;;4.70;95.60;;;;;;6238938;23;20698;-94
2022/03/10 02:13:44;;;;;;;1.33;0.83;;;4.60;99.40;;;;;;6237839;23;20171;-91
2022/03/10 02:19:06;;;;;;;1.40;0.70;;;4.40;99.90;;;;;;6216539;23;20211;-91
2022/03/10 02:21:38;;;;;;;3.03;0.90;;;4.30;99.90;;;;;;6242631;23;20199;-92
2022/03/10 02:24:11;;;;;;;3.00;0.87;;;4.20;99.90;;;;;;6242027;23;20176;-93
2022/03/10 02:26:42;;;;;;;1.90;1.17;;;4.10;99.90;;;;;;6231674;23;20192;-93
2022/03/10 02:31:46;;;;;;;2.57;1.17;;;3.90;99.90;;;;;;6231480;23;20720;-93
2022/03/10 02:34:17;;;;;;;2.77;0.97;;;3.80;99.90;;;;;;6225905;23;20196;-93
2022/03/10 02:36:49;;;;;;;3.03;1.40;;;3.80;99.90;;;;;;6224059;23;20183;-94
2022/03/10 02:39:23;;;;;;;2.80;1.33;;;3.70;99.90;;;;;;6224793;23;20301;-92
2022/03/10 02:41:55;;;;;;;3.27;1.20;;;3.60;99.90;;;;;;6222141;23;20180;-93
2022/03/10 02:44:26;;;;;;;3.07;1.37;;;3.60;99.90;;;;;;6222333;23;20185;-93
2022/03/10 02:46:57;;;;;;;1.90;0.90;;;3.50;99.90;;;;;;6196070;23;20179;-92
2022/03/10 02:49:29;;;;;;;1.73;0.90;;;3.40;99.90;;;;;;6223688;23;20177;-92
2022/03/10 02:52:00;;;;;;;1.20;0.90;;;3.30;99.90;;;;;;6223776;23;20168;-93
2022/03/10 02:54:45;;;;;;;2.77;1.00;;;3.20;99.90;;;;;;6224174;23;20169;-92
2022/03/10 02:57:17;;;;;;;3.03;0.90;;;3.20;99.90;;;;;;6221785;23;20247;-92
2022/03/10 02:59:48;;;;;;;0.60;0.50;;;3.10;99.90;;;;;;6233448;23;20168;-93
2022/03/10 03:02:19;;;;;;;2.17;0.80;;;3.00;99.90;;;;;;6236037;23;20195;-92
2022/03/10 03:04:50;;;;;;;1.07;0.90;;;2.90;99.90;;;;;;6241361;23;20570;-93
2022/03/10 03:07:21;;;;;;;1.40;0.70;;;2.90;99.90;;;;;;6237048;23;20176;-92
2022/03/10 03:09:54;;;;;;;1.63;0.80;;;2.80;99.90;;;;;;6238525;23;20196;-93
2022/03/10 03:12:26;;;;;;;1.13;0.80;;;2.80;99.90;;;;;;6242950;23;20164;-94
2022/03/10 03:15:01;;;;;;;1.43;0.60;;;2.70;99.90;;;;;;6218685;23;20187;-93
2022/03/10 03:17:34;;;;;;;1.77;0.90;;;2.60;99.90;;;;;;6241872;23;20228;-92
2022/03/10 03:20:14;;;;;;;1.53;0.90;;;2.50;99.90;;;;;;6241696;23;20169;-93
2022/03/10 03:25:29;;;;;;;2.33;1.00;;;2.40;99.90;;;;;;6236576;22;20207;-94
2022/03/10 03:28:01;;;;;;;0.93;0.77;;;2.40;99.90;;;;;;6235472;23;20176;-95
2022/03/10 03:30:33;;;;;;;1.47;0.87;;;2.30;99.90;;;;;;6234314;23;20200;-94
2022/03/10 03:33:05;;;;;;;1.17;0.80;;;2.30;99.90;;;;;;6233807;23;20228;-92
2022/03/10 03:35:40;;;;;;;0.87;0.87;;;2.20;99.90;;;;;;6234740;23;20176;-94
2022/03/10 03:38:13;;;;;;;2.40;0.80;;;2.20;99.90;;;;;;6235535;23;20220;-94
2022/03/10 03:40:47;;;;;;;1.80;0.83;;;2.10;99.90;;;;;;6236700;23;20172;-92
2022/03/10 03:43:19;;;;;;;1.87;0.80;;;2.10;99.90;;;;;;6233544;23;20180;-94
2022/03/10 03:45:51;;;;;;;1.80;0.97;;;2.10;99.90;;;;;;6239223;23;20168;-92
2022/03/10 03:48:23;;;;;;;0.97;0.80;;;1.90;99.90;;;;;;6239716;23;20168;-94
2022/03/10 03:50:54;;;;;;;1.27;0.90;;;1.80;99.90;;;;;;6235529;23;20204;-93
2022/03/10 03:53:26;;;;;;;2.43;0.93;;;1.80;99.90;;;;;;6236618;23;20568;-94
2022/03/10 03:55:59;;;;;;;2.93;1.30;;;1.70;99.90;;;;;;6185398;23;20211;-93
2022/03/10 03:58:32;;;;;;;1.33;1.00;;;1.70;99.90;;;;;;6212061;23;20265;-94
2022/03/10 04:01:05;;;;;;;7.20;4.20;;;1.80;99.90;;;;;;6241301;23;20164;-94
2022/03/10 04:03:37;;;;;;;33.77;18.80;;;1.70;99.90;;;;;;6194428;23;20208;-94
2022/03/10 04:06:09;;;;;;;34.80;21.93;;;1.70;99.90;;;;;;6208818;23;20180;-93
2022/03/10 04:08:41;;;;;;;22.63;14.17;;;1.60;99.90;;;;;;6211145;23;20200;-92
2022/03/10 04:13:53;;;;;;;6.43;3.20;;;1.60;99.90;;;;;;6227466;23;20167;-94
2022/03/10 04:16:25;;;;;;;7.50;3.80;;;1.50;99.90;;;;;;6216048;23;20168;-93
2022/03/10 04:18:57;;;;;;;6.70;4.07;;;1.50;99.90;;;;;;6238201;23;20231;-94
2022/03/10 04:21:28;;;;;;;5.40;4.30;;;1.50;99.90;;;;;;6234379;23;20176;-93
2022/03/10 04:23:59;;;;;;;6.70;4.10;;;1.50;99.90;;;;;;6233351;23;20180;-94
2022/03/10 04:26:31;;;;;;;8.07;5.97;;;1.40;99.90;;;;;;6234156;23;20551;-93
2022/03/10 04:29:04;;;;;;;9.43;6.97;;;1.40;99.90;;;;;;6238165;23;20519;-93
2022/03/10 04:31:43;;;;;;;7.20;6.20;;;1.30;99.90;;;;;;6239195;23;20184;-93
2022/03/10 04:34:15;;;;;;;8.03;5.53;;;1.20;99.90;;;;;;6213559;23;20176;-92
2022/03/10 04:36:47;;;;;;;12.43;8.50;;;1.20;99.90;;;;;;6241698;23;20187;-92
2022/03/10 04:39:22;;;;;;;10.83;7.53;;;1.30;99.90;;;;;;6241850;23;20167;-93
2022/03/10 04:41:54;;;;;;;10.23;6.40;;;1.20;99.90;;;;;;6242132;23;20193;-94
2022/03/10 04:52:41;;;;;;;7.23;4.57;;;1.00;99.90;;;;;;6208602;23;20189;-94
2022/03/10 04:55:13;;;;;;;6.17;4.50;;;1.00;99.90;;;;;;6205086;23;20165;-95
2022/03/10 04:57:44;;;;;;;4.37;3.37;;;1.00;99.90;;;;;;6203684;23;20266;-91
2022/03/10 05:00:18;;;;;;;3.63;2.50;;;1.00;99.90;;;;;;6205096;23;20173;-93
2022/03/10 05:02:50;;;;;;;3.13;2.37;;;0.90;99.90;;;;;;6210225;23;20168;-93
2022/03/10 05:05:26;;;;;;;5.47;3.30;;;0.90;99.90;;;;;;6208817;23;20164;-93
2022/03/10 05:08:12;;;;;;;6.17;3.80;;;0.90;99.90;;;;;;6186799;23;20169;-94
2022/03/10 05:10:44;;;;;;;6.93;4.97;;;0.90;99.90;;;;;;6212009;23;20193;-93
2022/03/10 05:13:17;;;;;;;6.00;4.07;;;0.80;99.90;;;;;;6209136;23;20180;-93
2022/03/10 05:15:48;;;;;;;4.13;3.60;;;0.80;99.90;;;;;;6209398;23;20165;-94
2022/03/10 05:18:22;;;;;;;5.00;3.40;;;0.70;99.90;;;;;;6208694;23;20168;-92
2022/03/10 05:20:54;;;;;;;8.07;6.00;;;0.70;99.90;;;;;;6207786;23;20173;-94
2022/03/10 05:23:28;;;;;;;6.13;5.23;;;0.70;99.90;;;;;;6173227;23;20241;-90
2022/03/10 05:26:00;;;;;;;5.27;3.57;;;0.80;99.90;;;;;;6213054;23;20204;-94
2022/03/10 05:28:32;;;;;;;4.97;2.90;;;0.80;99.90;;;;;;6243066;23;20165;-95
2022/03/10 05:31:07;;;;;;;5.30;3.20;;;0.80;99.90;;;;;;6205854;23;20208;-92
2022/03/10 05:33:44;;;;;;;6.50;3.40;;;0.70;99.90;;;;;;6209245;23;20207;-94
2022/03/10 05:36:15;;;;;;;7.83;3.90;;;0.70;99.90;;;;;;6195710;23;20623;-94
2022/03/10 05:38:48;;;;;;;12.13;5.17;;;0.70;99.90;;;;;;6192544;23;20632;-93
2022/03/10 05:41:24;;;;;;;5.70;3.33;;;0.70;99.90;;;;;;6193499;23;20171;-94
2022/03/10 05:43:55;;;;;;;6.67;3.30;;;0.70;99.90;;;;;;6191246;23;20260;-93
2022/03/10 05:46:27;;;;;;;11.27;5.03;;;0.70;99.90;;;;;;6191402;23;20235;-92
2022/03/10 05:49:00;;;;;;;15.63;7.27;;;0.70;99.90;;;;;;6190481;23;20526;-95
2022/03/10 05:51:32;;;;;;;17.57;7.47;;;0.70;99.90;;;;;;6191398;23;20208;-95
2022/03/10 05:54:05;;;;;;;18.80;7.23;;;0.70;99.90;;;;;;6191133;23;20189;-92
2022/03/10 05:56:37;;;;;;;16.77;7.20;;;0.60;99.90;;;;;;6198780;23;20169;-95
2022/03/10 05:59:07;;;;;;;9.87;5.87;;;0.50;99.90;;;;;;6190323;23;20212;-94
2022/03/10 06:01:39;;;;;;;19.33;10.00;;;0.50;99.90;;;;;;6198706;23;20203;-94
2022/03/10 06:04:11;;;;;;;27.87;16.03;;;0.40;99.90;;;;;;6203837;23;20192;-93
2022/03/10 06:06:43;;;;;;;27.13;14.03;;;0.40;99.90;;;;;;6192176;23;20221;-95
2022/03/10 06:09:17;;;;;;;22.27;12.63;;;0.40;99.90;;;;;;6190002;23;20177;-95
2022/03/10 06:11:49;;;;;;;16.83;9.77;;;0.40;99.90;;;;;;6193532;23;20193;-94
2022/03/10 06:14:21;;;;;;;6.70;4.47;;;0.40;99.90;;;;;;6192115;23;20176;-92
2022/03/10 06:16:53;;;;;;;4.90;2.40;;;0.40;99.90;;;;;;6194876;23;20193;-94
2022/03/10 06:19:24;;;;;;;3.23;2.47;;;0.40;99.90;;;;;;6204961;23;20169;-94
2022/03/10 06:21:55;;;;;;;4.93;3.20;;;0.40;99.90;;;;;;6203257;23;20197;-93
2022/03/10 06:24:28;;;;;;;7.40;3.67;;;0.40;99.90;;;;;;6204291;23;20261;-94
2022/03/10 06:26:59;;;;;;;6.70;3.10;;;0.40;99.90;;;;;;6205627;23;20193;-94
2022/03/10 06:29:31;;;;;;;5.33;3.37;;;0.40;99.90;;;;;;6206402;23;20220;-93
2022/03/10 06:32:03;;;;;;;6.47;3.77;;;0.30;99.90;;;;;;6215868;23;20199;-93
2022/03/10 06:34:34;;;;;;;5.57;3.00;;;0.30;99.90;;;;;;6231755;23;20176;-93
2022/03/10 06:37:05;;;;;;;5.90;2.87;;;0.30;99.90;;;;;;6223077;23;20188;-94
2022/03/10 06:39:38;;;;;;;5.50;2.73;;;0.30;99.90;;;;;;6228368;23;20199;-93
2022/03/10 06:42:11;;;;;;;3.30;2.37;;;0.30;99.90;;;;;;6233796;23;20184;-94
2022/03/10 06:44:41;;;;;;;4.20;1.43;;;0.30;99.90;;;;;;6197856;23;20172;-92
2022/03/10 06:47:13;;;;;;;2.53;1.63;;;0.20;99.90;;;;;;6229135;23;20172;-95
2022/03/10 06:49:47;;;;;;;1.80;1.40;;;0.20;99.90;;;;;;6210010;23;20200;-93
2022/03/10 06:52:20;;;;;;;2.53;1.13;;;0.10;99.90;;;;;;6231818;23;20206;-90
2022/03/10 06:54:54;;;;;;;1.60;1.07;;;0.10;99.90;;;;;;6233191;23;20169;-94
2022/03/10 06:57:26;;;;;;;2.10;1.27;;;0.10;99.90;;;;;;6220408;23;20215;-94
2022/03/10 06:59:57;;;;;;;2.70;1.20;;;0.10;99.90;;;;;;6235868;23;20179;-92
2022/03/10 07:02:28;;;;;;;2.93;1.00;;;0.10;99.90;;;;;;6237051;23;20204;-92
2022/03/10 07:05:00;;;;;;;0.90;0.77;;;0.10;99.90;;;;;;6232686;23;20173;-93
2022/03/10 07:07:31;;;;;;;2.57;0.83;;;0.10;99.90;;;;;;6225139;23;20184;-94
2022/03/10 07:10:05;;;;;;;1.50;1.30;;;0.00;99.90;;;;;;6233525;23;20168;-94
2022/03/10 07:12:37;;;;;;;1.30;0.90;;;0.00;99.90;;;;;;6230696;23;20645;-93
2022/03/10 07:15:11;;;;;;;1.97;1.00;;;0.00;99.90;;;;;;6224131;23;20169;-94
2022/03/10 07:17:44;;;;;;;2.90;1.13;;;0.00;99.90;;;;;;6220484;23;20179;-94
2022/03/10 07:20:18;;;;;;;8.43;2.00;;;0.00;99.90;;;;;;6236266;23;20212;-93
2022/03/10 07:22:50;;;;;;;2.63;1.27;;;-0.10;99.90;;;;;;6239853;23;20204;-94
2022/03/10 07:25:23;;;;;;;2.10;1.33;;;-0.10;99.90;;;;;;6235904;23;20225;-95
2022/03/10 07:27:55;;;;;;;2.10;1.27;;;-0.10;99.90;;;;;;6235236;23;20172;-94
2022/03/10 07:30:26;;;;;;;3.93;1.23;;;-0.10;99.90;;;;;;6235937;23;20181;-94
2022/03/10 07:33:00;;;;;;;4.07;1.40;;;-0.10;99.90;;;;;;6239190;23;20169;-93
2022/03/10 07:35:31;;;;;;;1.87;1.10;;;-0.10;99.90;;;;;;6200813;23;20171;-94
2022/03/10 07:38:02;;;;;;;1.73;1.07;;;-0.20;99.90;;;;;;6221163;23;20551;-93
2022/03/10 07:40:35;;;;;;;2.47;1.27;;;-0.20;99.90;;;;;;6233445;23;20182;-93
2022/03/10 07:43:06;;;;;;;1.90;1.13;;;-0.20;99.90;;;;;;6242160;23;20184;-94
2022/03/10 07:45:37;;;;;;;4.23;1.30;;;-0.20;99.90;;;;;;6241013;23;20187;-94
2022/03/10 07:48:08;;;;;;;2.40;1.37;;;-0.20;99.90;;;;;;6220842;23;20521;-94
2022/03/10 07:50:40;;;;;;;5.60;1.80;;;-0.20;99.90;;;;;;6222444;23;20551;-94
2022/03/10 07:53:11;;;;;;;3.27;1.60;;;-0.30;99.90;;;;;;6220819;23;20193;-94
2022/03/10 07:55:44;;;;;;;2.37;1.53;;;-0.30;99.90;;;;;;6221099;23;20230;-93
2022/03/10 07:58:22;;;;;;;2.40;1.53;;;-0.40;99.90;;;;;;6221084;23;20269;-94
2022/03/10 08:00:54;;;;;;;2.70;1.50;;;-0.40;99.90;;;;;;6221602;23;20180;-94
2022/03/10 08:03:25;;;;;;;3.53;1.73;;;-0.40;99.90;;;;;;6221965;23;20203;-93
2022/03/10 08:05:58;;;;;;;2.80;1.67;;;-0.40;99.90;;;;;;6220920;23;20177;-95
2022/03/10 08:08:30;;;;;;;2.03;1.30;;;-0.40;99.90;;;;;;6218824;23;20185;-94
2022/03/10 08:11:03;;;;;;;2.30;1.40;;;-0.50;99.90;;;;;;6194961;23;20198;-93
2022/03/10 08:13:35;;;;;;;2.60;1.47;;;-0.50;99.90;;;;;;6228206;23;20179;-95
2022/03/10 08:16:07;;;;;;;2.90;1.50;;;-0.50;99.90;;;;;;6228019;23;20201;-94
2022/03/10 08:18:39;;;;;;;2.13;1.20;;;-0.50;99.90;;;;;;6224148;23;20178;-94
2022/03/10 08:21:13;;;;;;;1.83;1.10;;;-0.50;99.90;;;;;;6218997;23;20201;-94
2022/03/10 08:23:45;;;;;;;1.60;1.10;;;-0.60;99.90;;;;;;6219319;23;20249;-94
2022/03/10 08:26:19;;;;;;;3.13;1.07;;;-0.60;99.90;;;;;;6193041;23;20203;-95
2022/03/10 08:28:53;;;;;;;2.33;1.20;;;-0.60;99.90;;;;;;6218211;23;20179;-93
2022/03/10 08:31:24;;;;;;;2.47;1.10;;;-0.70;99.90;;;;;;6227802;23;20526;-94
2022/03/10 08:33:56;;;;;;;3.00;1.00;;;-0.60;99.90;;;;;;6223033;23;20210;-94
2022/03/10 08:36:28;;;;;;;1.77;1.00;;;-0.60;99.90;;;;;;6194747;23;20442;-94
2022/03/10 08:38:58;;;;;;;3.20;1.40;;;-0.70;99.90;;;;;;6218801;23;20179;-94
2022/03/10 08:41:31;;;;;;;2.03;1.33;;;-0.70;99.90;;;;;;6194096;23;20172;-94
2022/03/10 08:44:03;;;;;;;1.40;1.00;;;-0.80;99.90;;;;;;6220291;23;20201;-93
2022/03/10 08:46:34;;;;;;;1.67;1.20;;;-0.90;99.90;;;;;;6220165;23;20256;-94
2022/03/10 08:49:05;;;;;;;1.70;0.93;;;-0.80;99.90;;;;;;6218646;23;20177;-92
2022/03/10 08:51:36;;;;;;;2.30;1.23;;;-0.90;99.90;;;;;;6224031;23;20190;-95
2022/03/10 08:54:08;;;;;;;3.00;1.00;;;-0.90;99.90;;;;;;6195313;23;20202;-93
2022/03/10 08:56:42;;;;;;;1.43;0.93;;;-0.90;99.90;;;;;;6220574;23;20202;-94
2022/03/10 08:59:13;;;;;;;1.83;1.10;;;-0.90;99.90;;;;;;6194832;23;20202;-95
2022/03/10 09:01:45;;;;;;;3.23;1.43;;;-0.90;99.90;;;;;;6200922;23;20241;-94
2022/03/10 09:04:18;;;;;;;1.77;1.27;;;-0.90;99.90;;;;;;6224024;23;20196;-95
2022/03/10 09:06:49;;;;;;;1.87;0.90;;;-1.00;99.90;;;;;;6199954;23;20205;-93
2022/03/10 09:09:20;;;;;;;3.20;0.90;;;-1.00;99.90;;;;;;6221858;23;20166;-94
2022/03/10 09:11:53;;;;;;;2.07;1.10;;;-1.10;99.90;;;;;;6202553;23;20246;-94
2022/03/10 09:14:24;;;;;;;5.50;1.10;;;-1.00;99.90;;;;;;6224611;23;20205;-93
2022/03/10 09:16:56;;;;;;;1.67;1.13;;;-1.00;99.90;;;;;;6223600;23;20510;-92
2022/03/10 09:19:32;;;;;;;1.40;1.13;;;-1.00;99.90;;;;;;6223466;23;20171;-94
2022/03/10 09:22:04;;;;;;;2.03;1.00;;;-1.00;99.90;;;;;;6228562;23;20179;-94
2022/03/10 09:24:36;;;;;;;1.30;1.00;;;-1.00;99.90;;;;;;6231435;23;20204;-94
2022/03/10 09:27:10;;;;;;;1.20;1.10;;;-1.00;99.90;;;;;;6206835;23;20197;-94
2022/03/10 09:29:42;;;;;;;2.13;1.17;;;-1.00;99.90;;;;;;6230416;23;20180;-93
2022/03/10 09:32:13;;;;;;;3.77;1.13;;;-1.00;99.90;;;;;;6202492;23;20187;-93
2022/03/10 09:34:45;;;;;;;1.70;1.33;;;-1.10;99.90;;;;;;6226255;23;20682;-93
2022/03/10 09:37:16;;;;;;;1.57;1.20;;;-1.10;99.90;;;;;;6234082;23;20188;-94
2022/03/10 09:39:48;;;;;;;2.77;1.30;;;-1.20;99.90;;;;;;6223471;23;20168;-93
2022/03/10 09:42:26;;;;;;;2.03;1.10;;;-1.20;99.90;;;;;;6221900;23;20221;-94
2022/03/10 09:44:59;;;;;;;2.33;1.30;;;-1.20;99.90;;;;;;6222499;23;20644;-93
2022/03/10 09:47:31;;;;;;;2.43;1.30;;;-1.20;99.90;;;;;;6220942;23;20253;-96
2022/03/10 09:50:06;;;;;;;1.00;0.90;;;-1.20;99.90;;;;;;6222531;23;20445;-92
2022/03/10 09:52:40;;;;;;;1.83;1.10;;;-1.30;99.90;;;;;;6224696;23;20203;-93
2022/03/10 09:55:13;;;;;;;1.50;1.10;;;-1.30;99.90;;;;;;6231146;23;20205;-94
2022/03/10 09:57:49;;;;;;;2.83;1.10;;;-1.30;99.90;;;;;;6211196;23;20182;-91
2022/03/10 10:00:21;;;;;;;4.33;1.00;;;-1.30;99.90;;;;;;6212060;23;20255;-93
2022/03/10 10:02:53;;;;;;;1.60;1.27;;;-1.30;99.90;;;;;;6199394;23;20184;-93
2022/03/10 10:05:26;;;;;;;1.43;1.00;;;-1.30;99.90;;;;;;6192593;23;20208;-94
2022/03/10 10:08:08;;;;;;;1.80;1.10;;;-1.40;99.90;;;;;;6191250;23;20259;-94
2022/03/10 10:10:41;;;;;;;2.83;0.90;;;-1.30;99.90;;;;;;6192147;23;20549;-93
2022/03/10 10:13:29;;;;;;;1.83;1.40;;;-1.40;99.90;;;;;;6191690;23;20180;-93
2022/03/10 10:16:01;;;;;;;6.73;0.90;;;-1.40;99.90;;;;;;6190795;23;20613;-95
2022/03/10 10:18:33;;;;;;;1.10;0.90;;;-1.40;99.90;;;;;;6195933;23;20162;-92
2022/03/10 10:21:18;;;;;;;4.40;1.10;;;-1.40;99.90;;;;;;6197138;23;20174;-94
2022/03/10 10:23:51;;;;;;;1.90;1.30;;;-1.40;99.90;;;;;;6202993;23;20208;-94
2022/03/10 10:26:26;;;;;;;1.80;1.20;;;-1.40;99.90;;;;;;6191543;23;20663;-93
2022/03/10 10:29:05;;;;;;;1.97;1.30;;;-1.40;99.90;;;;;;6192200;23;20180;-94
2022/03/10 10:31:40;;;;;;;2.00;1.20;;;-1.40;99.90;;;;;;6192274;23;20181;-93
2022/03/10 10:34:33;;;;;;;1.47;0.93;;;-1.50;99.90;;;;;;6194970;23;20233;-92
2022/03/10 10:37:06;;;;;;;1.17;1.00;;;-1.50;99.90;;;;;;6197680;23;20191;-95
2022/03/10 10:39:53;;;;;;;1.40;1.10;;;-1.50;99.90;;;;;;6212763;23;20179;-92
2022/03/10 10:42:29;;;;;;;1.20;1.10;;;-1.50;99.90;;;;;;6212276;23;20227;-94
2022/03/10 10:45:23;;;;;;;1.60;1.20;;;-1.50;99.90;;;;;;6208508;23;20649;-93
2022/03/10 10:48:05;;;;;;;2.70;1.10;;;-1.50;99.90;;;;;;6194187;23;20188;-92
2022/03/10 10:50:39;;;;;;;1.93;1.30;;;-1.50;99.90;;;;;;6195336;23;20179;-93
2022/03/10 10:53:29;;;;;;;1.83;1.17;;;-1.50;99.90;;;;;;6196895;23;20169;-93
2022/03/10 10:58:57;;;;;;;4.40;1.30;;;-1.60;99.90;;;;;;6171209;23;20178;-94
2022/03/10 11:01:33;;;;;;;1.70;1.10;;;-1.60;99.90;;;;;;6167912;23;20200;-93
2022/03/10 11:04:06;;;;;;;3.47;1.53;;;-1.60;99.90;;;;;;6172282;23;20210;-93
2022/03/10 11:06:37;;;;;;;1.90;1.27;;;-1.60;99.90;;;;;;6182335;23;20170;-92
2022/03/10 11:09:09;;;;;;;2.00;1.20;;;-1.60;99.90;;;;;;6180793;23;20182;-93
2022/03/10 11:11:42;;;;;;;2.33;1.10;;;-1.60;99.90;;;;;;6181673;23;20205;-93
2022/03/10 11:14:13;;;;;;;1.70;1.43;;;-1.50;99.90;;;;;;6132711;23;20158;-94
2022/03/10 11:16:49;;;;;;;5.17;1.23;;;-1.60;99.90;;;;;;6180739;23;20178;-93
2022/03/10 11:19:27;;;;;;;3.53;1.60;;;-1.60;99.90;;;;;;6181574;23;20181;-94
2022/03/10 11:22:10;;;;;;;2.40;1.63;;;-1.70;99.90;;;;;;6180347;23;20172;-93
2022/03/10 11:25:03;;;;;;;1.93;1.33;;;-1.70;99.90;;;;;;6179432;23;20195;-94
2022/03/10 11:27:38;;;;;;;2.63;1.47;;;-1.70;99.90;;;;;;6180077;23;20170;-93
2022/03/10 11:30:10;;;;;;;2.83;1.23;;;-1.70;99.90;;;;;;6178141;23;20182;-94
2022/03/10 11:32:43;;;;;;;4.20;1.50;;;-1.70;99.90;;;;;;6178425;23;20203;-93
2022/03/10 11:35:19;;;;;;;3.63;1.53;;;-1.80;99.90;;;;;;6178399;23;20222;-94
2022/03/10 11:37:53;;;;;;;3.80;1.50;;;-1.80;99.90;;;;;;6176733;23;20246;-93
2022/03/10 11:40:46;;;;;;;2.23;1.20;;;-1.80;99.90;;;;;;6152693;23;20181;-93
2022/03/10 11:43:29;;;;;;;1.83;1.37;;;-1.80;99.90;;;;;;6177129;23;20179;-93
2022/03/10 11:46:28;;;;;;;1.83;1.10;;;-1.70;99.90;;;;;;6174019;23;20198;-93
2022/03/10 11:49:12;;;;;;;2.17;1.60;;;-1.70;99.90;;;;;;6101861;23;20248;-93
2022/03/10 11:51:46;;;;;;;4.90;1.27;;;-1.70;99.90;;;;;;6174096;23;20184;-94
2022/03/10 11:54:26;;;;;;;3.27;1.40;;;-1.70;99.90;;;;;;6167726;23;20181;-93
2022/03/10 11:57:07;;;;;;;4.07;1.23;;;-1.70;99.90;;;;;;6175123;23;20208;-95
2022/03/10 12:00:11;;;;;;;2.73;1.53;;;-1.70;99.90;;;;;;6192473;23;20200;-94
2022/03/10 12:02:55;;;;;;;2.67;1.27;;;-1.70;99.90;;;;;;6195315;23;20224;-93
2022/03/10 12:05:58;;;;;;;1.70;1.27;;;-1.70;99.90;;;;;;6201223;23;20197;-94
2022/03/10 12:08:31;;;;;;;1.70;1.30;;;-1.70;99.90;;;;;;6204294;23;20223;-94
2022/03/10 12:11:04;;;;;;;2.07;1.23;;;-1.70;99.90;;;;;;6210218;23;20166;-91
2022/03/10 12:13:37;;;;;;;2.33;1.40;;;-1.70;99.90;;;;;;6209590;23;20169;-95
2022/03/10 12:16:10;;;;;;;1.83;1.03;;;-1.70;99.90;;;;;;6202543;23;20177;-94
2022/03/10 12:18:45;;;;;;;2.23;1.17;;;-1.70;99.90;;;;;;6199884;23;20183;-93
2022/03/10 12:21:23;;;;;;;1.17;1.03;;;-1.70;99.90;;;;;;6197545;23;20177;-93
2022/03/10 12:23:58;;;;;;;2.60;1.30;;;-1.70;99.90;;;;;;6198561;23;20181;-93
2022/03/10 12:26:31;;;;;;;1.90;1.20;;;-1.60;99.90;;;;;;6194324;23;20204;-93
2022/03/10 12:29:06;;;;;;;3.43;1.40;;;-1.60;99.90;;;;;;6191321;23;20179;-93
2022/03/10 12:31:38;;;;;;;7.87;1.50;;;-1.70;99.90;;;;;;6193573;23;20180;-92
2022/03/10 12:34:12;;;;;;;1.77;1.40;;;-1.70;99.90;;;;;;6192085;23;20184;-92
2022/03/10 12:36:49;;;;;;;4.00;1.27;;;-1.60;99.90;;;;;;6192042;23;20202;-94
2022/03/10 12:39:22;;;;;;;2.93;1.30;;;-1.70;99.90;;;;;;6194134;23;20186;-92
2022/03/10 12:42:01;;;;;;;2.50;1.47;;;-1.70;99.90;;;;;;6194755;23;20249;-93
2022/03/10 12:44:34;;;;;;;8.80;1.40;;;-1.70;99.90;;;;;;6193922;23;20222;-94
2022/03/10 12:47:09;;;;;;;1.93;1.40;;;-1.70;99.90;;;;;;6191234;23;20188;-92
2022/03/10 12:49:43;;;;;;;2.33;1.20;;;-1.70;99.90;;;;;;6193243;23;20190;-94
2022/03/10 12:52:18;;;;;;;1.57;1.10;;;-1.70;99.90;;;;;;6191920;23;20180;-94
2022/03/10 12:54:50;;;;;;;2.87;1.50;;;-1.80;99.90;;;;;;6191363;23;20168;-93
2022/03/10 12:57:21;;;;;;;2.07;1.27;;;-1.80;99.90;;;;;;6188317;23;20189;-93
2022/03/10 12:59:52;;;;;;;2.07;1.30;;;-1.80;99.90;;;;;;6190938;23;20198;-93
2022/03/10 13:02:26;;;;;;;2.00;1.50;;;-1.80;99.90;;;;;;6190691;23;20523;-92
2022/03/10 13:05:00;;;;;;;1.27;1.00;;;-1.70;99.90;;;;;;6190195;23;20719;-92
2022/03/10 13:07:37;;;;;;;1.70;1.20;;;-1.70;99.90;;;;;;6189966;23;20177;-94
2022/03/10 13:10:12;;;;;;;2.43;1.50;;;-1.80;99.90;;;;;;6190098;23;20191;-94
2022/03/10 13:12:47;;;;;;;2.83;1.40;;;-1.70;99.90;;;;;;6190128;23;20166;-95
2022/03/10 13:15:24;;;;;;;1.63;1.30;;;-1.70;99.90;;;;;;6188464;23;20259;-94
2022/03/10 13:18:02;;;;;;;3.00;1.90;;;-1.70;99.90;;;;;;6188358;23;20202;-93
2022/03/10 13:20:36;;;;;;;3.20;1.63;;;-1.70;99.90;;;;;;6189533;23;20176;-94
2022/03/10 13:23:11;;;;;;;2.03;1.47;;;-1.70;99.90;;;;;;6191253;23;20175;-93
2022/03/10 13:25:43;;;;;;;2.27;1.37;;;-1.70;99.90;;;;;;6190054;23;20235;-91
2022/03/10 13:28:18;;;;;;;2.50;1.43;;;-1.70;99.90;;;;;;6190405;23;20187;-93
2022/03/10 13:30:52;;;;;;;5.67;1.60;;;-1.60;99.90;;;;;;6189264;23;20181;-93
2022/03/10 13:33:26;;;;;;;4.50;1.47;;;-1.60;99.90;;;;;;6201088;23;20172;-95
2022/03/10 13:35:59;;;;;;;3.50;1.47;;;-1.60;99.90;;;;;;6199225;23;20179;-92
2022/03/10 13:38:33;;;;;;;3.13;1.50;;;-1.50;99.90;;;;;;6189881;23;20169;-92
2022/03/10 13:41:06;;;;;;;2.27;1.20;;;-1.50;99.90;;;;;;6200278;23;20171;-94
2022/03/10 13:43:39;;;;;;;3.03;1.10;;;-1.50;99.90;;;;;;6200145;23;20171;-93
2022/03/10 13:46:16;;;;;;;2.43;1.10;;;-1.40;99.90;;;;;;6191707;23;20244;-92
2022/03/10 13:48:50;;;;;;;3.07;1.50;;;-1.40;99.90;;;;;;6189813;23;20181;-94
2022/03/10 13:51:23;;;;;;;2.43;1.50;;;-1.40;99.90;;;;;;6192617;23;20183;-93